createdAt,value
2023-01-11T00:01:24.020Z,92.76
2023-01-11T00:03:51.576Z,92.40
2023-01-11T00:06:19.192Z,93.18
2023-01-11T00:08:47.084Z,92.74
2023-01-11T00:11:16.589Z,93.47
2023-01-11T00:13:46.071Z,93.69
2023-01-11T00:16:13.793Z,93.55
2023-01-11T00:18:41.441Z,93.54
2023-01-11T00:21:09.627Z,94.57
2023-01-11T00:23:38.517Z,93.76
2023-01-11T00:26:07.138Z,91.90
2023-01-11T00:28:34.936Z,93.23
2023-01-11T00:31:03.961Z,90.63
2023-01-11T00:33:31.629Z,92.60
2023-01-11T00:35:59.176Z,92.59
2023-01-11T00:38:46.769Z,92.26
2023-01-11T00:41:33.333Z,92.13
2023-01-11T00:44:18.734Z,91.91
2023-01-11T00:47:05.322Z,92.08
2023-01-11T00:49:32.947Z,91.91
2023-01-11T00:52:00.612Z,92.50
2023-01-11T00:54:28.297Z,92.59
2023-01-11T00:56:55.895Z,92.27
2023-01-11T00:59:23.473Z,94.11
2023-01-11T01:01:52.462Z,93.84
2023-01-11T01:04:19.984Z,93.17
2023-01-11T01:06:47.593Z,90.51
2023-01-11T01:09:15.229Z,90.05
2023-01-11T01:11:42.818Z,90.55
2023-01-11T01:14:28.811Z,89.30
2023-01-11T01:17:00.204Z,88.78
2023-01-11T01:19:28.680Z,85.48
2023-01-11T01:21:56.888Z,85.48
2023-01-11T01:24:25.313Z,86.70
2023-01-11T01:26:52.946Z,89.80
2023-01-11T01:29:20.596Z,92.59
2023-01-11T01:31:48.236Z,91.70
2023-01-11T01:34:17.245Z,92.60
2023-01-11T01:36:44.895Z,93.07
2023-01-11T01:39:13.022Z,95.65
2023-01-11T01:41:40.755Z,95.30
2023-01-11T01:44:41.764Z,95.42
2023-01-11T01:47:09.520Z,96.53
2023-01-11T01:49:38.557Z,95.54
2023-01-11T01:52:06.494Z,94.76
2023-01-11T01:54:37.868Z,96.62
2023-01-11T01:57:08.257Z,97.26
2023-01-11T01:59:35.853Z,97.36
2023-01-11T02:02:03.460Z,97.98
2023-01-11T02:04:33.248Z,96.74
2023-01-11T02:07:04.785Z,97.01
2023-01-11T02:09:35.590Z,97.45
2023-01-11T02:12:04.158Z,98.01
2023-01-11T02:14:33.216Z,97.93
2023-01-11T02:17:00.799Z,96.67
2023-01-11T02:19:40.398Z,97.64
2023-01-11T02:22:23.906Z,95.85
2023-01-11T02:25:09.080Z,96.07
2023-01-11T02:27:51.696Z,94.66
2023-01-11T02:30:25.532Z,96.32
2023-01-11T02:33:00.272Z,97.20
2023-01-11T02:35:35.343Z,97.37
2023-01-11T02:38:07.111Z,98.23
2023-01-11T02:40:40.350Z,96.73
2023-01-11T02:43:31.940Z,97.58
2023-01-11T02:46:03.313Z,98.73
2023-01-11T02:48:35.258Z,99.31
2023-01-11T02:51:07.045Z,99.19
2023-01-11T02:53:38.158Z,100.00
2023-01-11T02:56:08.932Z,100.00
2023-01-11T02:58:41.536Z,100.00
2023-01-11T03:01:09.343Z,100.00
2023-01-11T03:03:36.909Z,100.00
2023-01-11T03:06:07.356Z,100.00
2023-01-11T03:08:55.158Z,100.00
2023-01-11T03:11:46.747Z,100.00
2023-01-11T03:14:22.060Z,100.00
2023-01-11T03:16:53.219Z,100.00
2023-01-11T03:19:29.404Z,100.00
2023-01-11T03:22:01.058Z,100.00
2023-01-11T03:24:32.204Z,100.00
2023-01-11T03:27:08.419Z,100.00
2023-01-11T03:29:41.208Z,100.00
2023-01-11T03:32:17.737Z,100.00
2023-01-11T03:34:50.575Z,100.00
2023-01-11T03:37:20.812Z,100.00
2023-01-11T03:39:53.259Z,100.00
2023-01-11T03:42:22.993Z,100.00
2023-01-11T03:44:55.437Z,100.00
2023-01-11T03:47:25.235Z,100.00
2023-01-11T03:49:54.496Z,100.00
2023-01-11T03:52:26.020Z,100.00
2023-01-11T03:54:54.732Z,100.00
2023-01-11T03:57:24.707Z,100.00
2023-01-11T03:59:54.592Z,100.00
2023-01-11T04:02:23.881Z,100.00
2023-01-11T04:04:51.875Z,100.00
2023-01-11T04:07:19.729Z,100.00
2023-01-11T04:09:47.358Z,100.00
2023-01-11T04:12:14.998Z,100.00
2023-01-11T04:14:42.646Z,100.00
2023-01-11T04:17:11.639Z,100.00
2023-01-11T04:19:39.196Z,100.00
2023-01-11T04:22:06.756Z,100.00
2023-01-11T04:24:34.380Z,100.00
2023-01-11T04:27:02.004Z,100.00
2023-01-11T04:29:29.593Z,100.00
2023-01-11T04:31:57.540Z,100.00
2023-01-11T04:34:26.445Z,100.00
2023-01-11T04:36:54.022Z,100.00
2023-01-11T04:39:21.850Z,100.00
2023-01-11T04:42:06.909Z,100.00
2023-01-11T04:44:34.528Z,100.00
2023-01-11T04:47:02.087Z,100.00
2023-01-11T04:49:31.071Z,100.00
2023-01-11T04:51:58.632Z,100.00
2023-01-11T04:54:26.247Z,100.00
2023-01-11T04:56:53.810Z,100.00
2023-01-11T04:59:21.420Z,100.00
2023-01-11T05:01:49.042Z,100.00
2023-01-11T05:04:16.701Z,100.00
2023-01-11T05:06:45.653Z,100.00
2023-01-11T05:09:14.567Z,100.00
2023-01-11T05:11:42.404Z,100.00
2023-01-11T05:14:10.314Z,100.00
2023-01-11T05:16:38.126Z,100.00
2023-01-11T05:19:06.280Z,100.00
2023-01-11T05:21:39.096Z,100.00
2023-01-11T05:24:09.694Z,100.00
2023-01-11T05:26:39.434Z,100.00
2023-01-11T05:29:08.952Z,100.00
2023-01-11T05:31:37.912Z,100.00
2023-01-11T05:34:06.876Z,100.00
2023-01-11T05:36:35.225Z,100.00
2023-01-11T05:39:03.147Z,100.00
2023-01-11T05:41:32.145Z,100.00
2023-01-11T05:44:17.358Z,100.00
2023-01-11T05:46:45.663Z,100.00
2023-01-11T05:49:14.329Z,100.00
2023-01-11T05:51:42.855Z,100.00
2023-01-11T05:54:12.800Z,100.00
2023-01-11T05:56:42.624Z,100.00
2023-01-11T05:59:10.590Z,100.00
2023-01-11T06:01:38.888Z,100.00
2023-01-11T06:04:08.352Z,99.11
2023-01-11T06:06:36.192Z,99.32
2023-01-11T06:09:04.004Z,99.68
2023-01-11T06:11:31.602Z,99.45
2023-01-11T06:14:00.525Z,100.00
2023-01-11T06:16:28.252Z,100.00
2023-01-11T06:18:55.917Z,100.00
2023-01-11T06:21:24.312Z,100.00
2023-01-11T06:23:52.487Z,100.00
2023-01-11T06:26:22.164Z,100.00
2023-01-11T06:28:49.939Z,99.97
2023-01-11T06:31:19.176Z,100.00
2023-01-11T06:33:47.379Z,100.00
2023-01-11T06:36:15.940Z,100.00
2023-01-11T06:38:43.981Z,100.00
2023-01-11T06:41:12.909Z,100.00
2023-01-11T06:43:42.167Z,99.93
2023-01-11T06:46:13.510Z,100.00
2023-01-11T06:48:42.790Z,100.00
2023-01-11T06:51:11.863Z,99.62
2023-01-11T06:53:39.609Z,99.79
2023-01-11T06:56:07.740Z,99.39
2023-01-11T06:58:35.348Z,99.63
2023-01-11T07:01:03.164Z,100.00
2023-01-11T07:03:31.136Z,100.00
2023-01-11T07:06:00.179Z,99.71
2023-01-11T07:08:28.115Z,99.55
2023-01-11T07:10:55.886Z,99.66
2023-01-11T07:13:23.930Z,98.93
2023-01-11T07:15:54.042Z,99.38
2023-01-11T07:18:21.827Z,99.23
2023-01-11T07:20:49.402Z,99.20
2023-01-11T07:23:18.362Z,98.64
2023-01-11T07:25:45.915Z,99.05
2023-01-11T07:28:13.500Z,98.76
2023-01-11T07:30:56.662Z,99.52
2023-01-11T07:33:26.353Z,100.00
2023-01-11T07:35:54.219Z,99.36
2023-01-11T07:38:23.354Z,98.19
2023-01-11T07:40:51.031Z,99.15
2023-01-11T07:43:19.697Z,98.32
2023-01-11T07:45:49.591Z,98.68
2023-01-11T07:48:20.964Z,98.57
2023-01-11T07:50:49.327Z,98.94
2023-01-11T07:53:18.893Z,98.10
2023-01-11T07:55:48.384Z,96.59
2023-01-11T07:58:16.568Z,97.24
2023-01-11T08:00:46.045Z,97.47
2023-01-11T08:03:13.928Z,96.71
2023-01-11T08:05:41.704Z,97.19
2023-01-11T08:08:09.523Z,97.34
2023-01-11T08:10:37.091Z,97.03
2023-01-11T08:13:23.439Z,96.62
2023-01-11T08:15:51.179Z,96.21
2023-01-11T08:18:19.745Z,96.22
2023-01-11T08:20:47.648Z,96.69
2023-01-11T08:23:15.228Z,96.42
2023-01-11T08:25:42.815Z,97.27
2023-01-11T08:28:12.670Z,96.56
2023-01-11T08:30:40.939Z,96.05
2023-01-11T08:33:08.538Z,96.88
2023-01-11T08:35:39.511Z,95.84
2023-01-11T08:38:07.211Z,96.08
2023-01-11T08:40:34.814Z,96.40
2023-01-11T08:43:02.494Z,96.60
2023-01-11T08:45:31.487Z,96.46
2023-01-11T08:48:01.110Z,95.02
2023-01-11T08:50:28.823Z,95.41
2023-01-11T08:52:56.427Z,94.73
2023-01-11T08:55:24.033Z,94.76
2023-01-11T08:57:51.779Z,93.75
2023-01-11T09:00:20.827Z,93.09
2023-01-11T09:02:49.811Z,93.48
2023-01-11T09:05:18.346Z,93.65
2023-01-11T09:07:46.989Z,92.47
2023-01-11T09:10:14.613Z,91.47
2023-01-11T09:12:42.226Z,91.42
2023-01-11T09:15:10.632Z,91.34
2023-01-11T09:17:38.221Z,91.65
2023-01-11T09:20:08.604Z,91.23
2023-01-11T09:22:36.216Z,89.98
2023-01-11T09:25:03.994Z,89.77
2023-01-11T09:27:31.677Z,88.68
2023-01-11T09:29:59.319Z,88.11
2023-01-11T09:32:27.051Z,87.28
2023-01-11T09:34:57.920Z,88.36
2023-01-11T09:37:27.070Z,86.87
2023-01-11T09:39:54.735Z,88.17
2023-01-11T09:42:32.281Z,88.52
2023-01-11T09:45:07.158Z,87.38
2023-01-11T09:47:40.854Z,86.93
2023-01-11T09:50:14.210Z,85.63
2023-01-11T09:52:44.663Z,83.90
2023-01-11T09:55:19.160Z,85.37
2023-01-11T09:58:03.877Z,84.43
2023-01-11T10:00:41.453Z,82.78
2023-01-11T10:03:36.346Z,84.17
2023-01-11T10:06:11.479Z,84.46
2023-01-11T10:18:33.480Z,83.40
2023-01-11T10:18:41.718Z,83.21
2023-01-11T10:20:35.479Z,83.72
2023-01-11T10:23:06.371Z,82.62
2023-01-11T10:25:42.718Z,80.66
2023-01-11T10:28:17.467Z,79.93
2023-01-11T10:31:01.327Z,81.17
2023-01-11T10:33:46.347Z,80.60
2023-01-11T10:36:34.659Z,79.88
2023-01-11T10:39:17.529Z,78.39
2023-01-11T10:41:57.103Z,79.38
2023-01-11T10:44:31.430Z,79.67
2023-01-11T10:47:00.837Z,77.67
2023-01-11T10:49:44.280Z,76.39
2023-01-11T10:52:26.261Z,75.95
2023-01-11T10:54:57.261Z,82.58
2023-01-11T10:57:37.203Z,77.08
2023-01-11T11:00:18.398Z,76.70
2023-01-11T11:02:58.918Z,78.79
2023-01-11T11:05:33.165Z,79.06
2023-01-11T11:08:05.695Z,77.86
2023-01-11T11:10:36.933Z,77.96
2023-01-11T11:13:12.706Z,77.69
2023-01-11T11:15:42.504Z,77.31
2023-01-11T11:18:10.714Z,76.76
2023-01-11T11:20:38.574Z,75.03
2023-01-11T11:23:06.234Z,77.07
2023-01-11T11:25:37.440Z,77.23
2023-01-11T11:28:08.374Z,77.45
2023-01-11T11:30:38.282Z,78.58
2023-01-11T11:33:08.635Z,77.56
2023-01-11T11:35:38.699Z,76.74
2023-01-11T11:38:06.584Z,76.91
2023-01-11T11:40:36.545Z,77.52
2023-01-11T11:43:22.425Z,77.72
2023-01-11T11:45:55.137Z,76.52
2023-01-11T11:48:23.573Z,75.26
2023-01-11T11:50:52.062Z,77.86
2023-01-11T11:53:28.457Z,78.13
2023-01-11T11:55:56.252Z,78.89
2023-01-11T11:58:26.565Z,77.02
2023-01-11T12:00:54.507Z,77.35
2023-01-11T12:03:26.308Z,78.39
2023-01-11T12:05:57.450Z,76.73
2023-01-11T12:08:25.949Z,77.68
2023-01-11T12:10:57.492Z,75.78
2023-01-11T12:13:34.670Z,76.43
2023-01-11T12:16:03.519Z,75.79
2023-01-11T12:18:33.386Z,76.45
2023-01-11T12:21:21.242Z,76.02
2023-01-11T12:23:49.189Z,75.90
2023-01-11T12:26:23.666Z,77.23
2023-01-11T12:29:23.230Z,76.17
2023-01-11T12:31:59.920Z,77.53
2023-01-11T12:34:38.432Z,76.79
2023-01-11T12:37:13.065Z,76.77
2023-01-11T12:39:45.375Z,75.72
2023-01-11T12:42:32.834Z,77.10
2023-01-11T12:45:16.071Z,78.83
2023-01-11T12:48:08.343Z,77.13
2023-01-11T12:53:16.923Z,77.48
2023-01-11T12:56:08.104Z,75.76
2023-01-11T12:58:38.689Z,77.00
2023-01-11T13:01:16.241Z,78.52
2023-01-11T13:03:58.280Z,77.19
2023-01-11T13:06:30.303Z,75.91
2023-01-11T13:09:02.599Z,76.60
2023-01-11T13:11:43.566Z,76.80
2023-01-11T13:14:26.464Z,78.44
2023-01-11T13:17:01.406Z,75.92
2023-01-11T13:19:32.806Z,76.23
2023-01-11T13:22:05.243Z,75.73
2023-01-11T13:24:33.946Z,76.97
2023-01-11T13:27:03.762Z,76.10
2023-01-11T13:29:33.631Z,77.78
2023-01-11T13:32:06.631Z,76.37
2023-01-11T13:34:37.379Z,77.27
2023-01-11T13:37:08.668Z,77.88
2023-01-11T13:39:43.526Z,77.87
2023-01-11T13:42:15.175Z,78.29
2023-01-11T13:44:47.565Z,78.95
2023-01-11T13:47:19.192Z,80.68
2023-01-11T13:49:55.294Z,81.12
2023-01-11T13:52:29.383Z,83.45
2023-01-11T13:55:01.864Z,84.10
2023-01-11T13:57:35.489Z,87.08
2023-01-11T14:00:06.682Z,88.66
2023-01-11T14:02:40.977Z,92.22
2023-01-11T14:05:14.911Z,94.92
2023-01-11T14:07:51.589Z,96.93
2023-01-11T14:10:26.171Z,99.23
2023-01-11T14:13:09.975Z,100.00
2023-01-11T14:15:41.980Z,100.00
2023-01-11T14:18:23.890Z,100.00
2023-01-11T14:20:59.151Z,100.00
2023-01-11T14:23:32.004Z,100.00
2023-01-11T14:26:23.777Z,100.00
2023-01-11T14:29:00.287Z,100.00
2023-01-11T14:31:41.609Z,100.00
2023-01-11T14:34:30.913Z,100.00
2023-01-11T14:37:26.132Z,100.00
2023-01-11T14:40:07.102Z,100.00
2023-01-11T14:42:44.991Z,100.00
2023-01-11T14:45:31.100Z,100.00
2023-01-11T14:48:07.419Z,100.00
2023-01-11T14:50:43.920Z,100.00
2023-01-11T14:53:14.005Z,100.00
2023-01-11T14:55:45.090Z,100.00
2023-01-11T14:58:25.305Z,100.00
2023-01-11T15:01:11.903Z,100.00
2023-01-11T15:03:49.419Z,100.00
2023-01-11T15:06:21.372Z,100.00
2023-01-11T15:08:51.610Z,100.00
2023-01-11T15:11:24.981Z,100.00
2023-01-11T15:13:56.644Z,100.00
2023-01-11T15:16:42.842Z,100.00
2023-01-11T15:19:14.165Z,100.00
2023-01-11T15:21:49.944Z,100.00
2023-01-11T15:24:28.344Z,100.00
2023-01-11T15:26:56.529Z,100.00
2023-01-11T15:29:27.032Z,100.00
2023-01-11T15:32:15.595Z,100.00
2023-01-11T15:34:45.695Z,100.00
2023-01-11T15:37:40.712Z,100.00
2023-01-11T15:40:16.548Z,100.00
2023-01-11T15:43:24.915Z,100.00
2023-01-11T15:46:20.215Z,100.00
2023-01-11T15:49:13.831Z,100.00
2023-01-11T15:51:54.661Z,100.00
2023-01-11T15:54:39.083Z,100.00
2023-01-11T15:57:22.465Z,100.00
2023-01-11T16:00:22.364Z,100.00
2023-01-11T16:03:11.911Z,100.00
2023-01-11T16:05:43.206Z,100.00
2023-01-11T16:08:20.109Z,100.00
2023-01-11T16:10:59.140Z,100.00
2023-01-11T16:13:53.543Z,100.00
2023-01-11T16:16:22.266Z,100.00
2023-01-11T16:18:52.810Z,100.00
2023-01-11T16:21:23.730Z,100.00
2023-01-11T16:23:51.368Z,100.00
2023-01-11T16:26:22.043Z,100.00
2023-01-11T16:28:51.688Z,100.00
2023-01-11T16:31:19.410Z,100.00
2023-01-11T16:33:49.597Z,100.00
2023-01-11T16:36:21.008Z,100.00
2023-01-11T16:38:56.950Z,100.00
2023-01-11T16:41:27.608Z,100.00
2023-01-11T16:44:00.103Z,100.00
2023-01-11T16:47:01.423Z,100.00
2023-01-11T16:49:28.996Z,100.00
2023-01-11T16:51:59.923Z,100.00
2023-01-11T16:54:28.884Z,100.00
2023-01-11T16:56:58.862Z,100.00
2023-01-11T16:59:30.482Z,100.00
2023-01-11T17:01:59.803Z,100.00
2023-01-11T17:04:29.976Z,100.00
2023-01-11T17:06:58.151Z,100.00
2023-01-11T17:09:28.245Z,100.00
2023-01-11T17:11:57.203Z,100.00
2023-01-11T17:14:51.432Z,100.00
2023-01-11T17:17:20.647Z,100.00
2023-01-11T17:19:49.376Z,100.00
2023-01-11T17:22:21.768Z,100.00
2023-01-11T17:24:52.337Z,100.00
2023-01-11T17:27:23.245Z,100.00
2023-01-11T17:29:53.230Z,100.00
2023-01-11T17:32:24.767Z,100.00
2023-01-11T17:34:53.886Z,100.00
2023-01-11T17:37:21.921Z,100.00
2023-01-11T17:39:51.629Z,100.00
2023-01-11T17:42:38.524Z,100.00
2023-01-11T17:45:21.173Z,100.00
2023-01-11T17:47:50.401Z,100.00
2023-01-11T17:50:25.130Z,100.00
2023-01-11T17:52:55.146Z,100.00
2023-01-11T17:55:24.755Z,100.00
2023-01-11T17:58:11.344Z,100.00
2023-01-11T18:00:39.173Z,100.00
2023-01-11T18:03:10.609Z,100.00
2023-01-11T18:05:38.346Z,100.00
2023-01-11T18:08:09.785Z,100.00
2023-01-11T18:10:39.755Z,100.00
2023-01-11T18:13:26.542Z,100.00
2023-01-11T18:15:54.287Z,100.00
2023-01-11T18:18:42.070Z,100.00
2023-01-11T18:21:48.297Z,100.00
2023-01-11T18:24:25.385Z,100.00
2023-01-11T18:27:06.831Z,100.00
2023-01-11T18:29:50.795Z,100.00
2023-01-11T18:32:18.871Z,100.00
2023-01-11T18:34:49.337Z,100.00
2023-01-11T18:37:17.045Z,100.00
2023-01-11T18:39:44.696Z,100.00
2023-01-11T18:42:17.253Z,100.00
2023-01-11T18:44:46.682Z,100.00
2023-01-11T18:47:18.332Z,100.00
2023-01-11T18:49:46.431Z,100.00
2023-01-11T18:52:14.743Z,100.00
2023-01-11T18:54:43.511Z,100.00
2023-01-11T18:57:11.747Z,100.00
2023-01-11T18:59:39.669Z,100.00
2023-01-11T19:04:48.431Z,100.00
2023-01-11T19:07:16.678Z,100.00
2023-01-11T19:09:45.476Z,100.00
2023-01-11T19:12:13.245Z,100.00
2023-01-11T19:14:41.303Z,100.00
2023-01-11T19:17:09.338Z,100.00
2023-01-11T19:19:38.328Z,100.00
2023-01-11T19:22:06.815Z,100.00
2023-01-11T19:24:34.543Z,100.00
2023-01-11T19:27:02.415Z,100.00
2023-01-11T19:29:30.336Z,100.00
2023-01-11T19:31:57.945Z,100.00
2023-01-11T19:34:25.539Z,100.00
2023-01-11T19:36:54.494Z,100.00
2023-01-11T19:39:22.112Z,100.00
2023-01-11T19:41:57.930Z,100.00
2023-01-11T19:44:27.717Z,100.00
2023-01-11T19:47:10.312Z,100.00
2023-01-11T19:49:38.758Z,100.00
2023-01-11T19:52:12.519Z,100.00
2023-01-11T19:54:42.002Z,100.00
2023-01-11T19:57:11.171Z,100.00
2023-01-11T19:59:39.021Z,100.00
2023-01-11T20:02:06.862Z,100.00
2023-01-11T20:04:34.507Z,100.00
2023-01-11T20:07:02.086Z,100.00
2023-01-11T20:09:31.017Z,100.00
2023-01-11T20:11:58.888Z,100.00
2023-01-11T20:14:26.907Z,100.00
2023-01-11T20:16:54.628Z,100.00
2023-01-11T20:19:22.235Z,100.00
2023-01-11T20:21:49.900Z,100.00
2023-01-11T20:24:17.690Z,100.00
2023-01-11T20:26:47.148Z,100.00
2023-01-11T20:29:14.811Z,100.00
2023-01-11T20:31:42.541Z,100.00
2023-01-11T20:34:13.113Z,100.00
2023-01-11T20:36:41.993Z,100.00
2023-01-11T20:39:10.409Z,100.00
2023-01-11T20:41:50.931Z,100.00
2023-01-11T20:44:22.080Z,100.00
2023-01-11T20:46:49.917Z,100.00
2023-01-11T20:49:17.889Z,100.00
2023-01-11T20:51:46.408Z,100.00
2023-01-11T20:54:14.452Z,100.00
2023-01-11T20:56:42.245Z,100.00
2023-01-11T21:01:39.447Z,100.00
2023-01-11T21:04:08.677Z,100.00
2023-01-11T21:06:37.852Z,100.00
2023-01-11T21:09:06.350Z,100.00
2023-01-11T21:11:34.355Z,100.00
2023-01-11T21:14:04.049Z,100.00
2023-01-11T21:16:32.532Z,100.00
2023-01-11T21:19:02.858Z,100.00
2023-01-11T21:21:31.598Z,100.00
2023-01-11T21:24:00.360Z,100.00
2023-01-11T21:26:29.474Z,100.00
2023-01-11T21:28:59.453Z,100.00
2023-01-11T21:31:28.044Z,100.00
2023-01-11T21:33:56.044Z,100.00
2023-01-11T21:36:26.475Z,100.00
2023-01-11T21:38:54.656Z,100.00
2023-01-11T21:41:43.823Z,100.00
2023-01-11T21:44:12.644Z,100.00
2023-01-11T21:46:40.516Z,100.00
2023-01-11T21:49:08.648Z,100.00
2023-01-11T21:51:38.043Z,100.00
2023-01-11T21:54:07.240Z,100.00
2023-01-11T21:56:35.547Z,100.00
2023-01-11T21:59:03.264Z,100.00
2023-01-11T22:01:31.211Z,100.00
2023-01-11T22:03:58.852Z,100.00
2023-01-11T22:06:26.480Z,100.00
2023-01-11T22:08:55.507Z,100.00
2023-01-11T22:11:23.257Z,100.00
2023-01-11T22:13:50.815Z,100.00
2023-01-11T22:16:19.529Z,100.00
2023-01-11T22:18:47.222Z,100.00
2023-01-11T22:21:17.755Z,100.00
2023-01-11T22:23:46.542Z,100.00
2023-01-11T22:26:17.769Z,100.00
2023-01-11T22:29:03.814Z,100.00
2023-01-11T22:31:32.666Z,100.00
2023-01-11T22:34:01.351Z,100.00
2023-01-11T22:36:29.620Z,100.00
2023-01-11T22:38:57.404Z,100.00
2023-01-11T22:41:27.124Z,100.00
2023-01-11T22:43:55.080Z,100.00
2023-01-11T22:46:23.898Z,100.00
2023-01-11T22:48:52.060Z,100.00
2023-01-11T22:51:20.877Z,100.00
2023-01-11T22:53:49.902Z,100.00
2023-01-11T22:56:19.338Z,100.00
2023-01-11T22:58:48.531Z,100.00
2023-01-11T23:01:17.892Z,100.00
2023-01-11T23:03:46.193Z,100.00
2023-01-11T23:06:16.570Z,100.00
2023-01-11T23:08:44.428Z,100.00
2023-01-11T23:11:14.901Z,100.00
2023-01-11T23:13:54.991Z,100.00
2023-01-11T23:16:23.999Z,100.00
2023-01-11T23:18:51.610Z,100.00
2023-01-11T23:21:20.319Z,100.00
2023-01-11T23:23:47.915Z,100.00
2023-01-11T23:26:17.962Z,100.00
2023-01-11T23:28:46.185Z,100.00
2023-01-11T23:31:17.211Z,100.00
2023-01-11T23:33:47.117Z,100.00
2023-01-11T23:36:15.409Z,100.00
2023-01-11T23:38:43.171Z,100.00
2023-01-11T23:41:30.080Z,100.00
2023-01-11T23:43:58.079Z,100.00
2023-01-11T23:46:43.643Z,100.00
2023-01-11T23:49:14.442Z,100.00
2023-01-11T23:51:43.169Z,100.00
2023-01-11T23:54:11.546Z,100.00
2023-01-11T23:56:39.575Z,100.00
2023-01-11T23:59:08.003Z,100.00
